This is the latest recevied weather packets stored in our database for station/object W2EH. If no packets are shown the sender has not sent any weather packets the latest 10 day(s).
| Time | Temp. | Humidity | Pressure | Rain* | Wind** | Luminosity | Snow |
|---|---|---|---|---|---|---|---|
| 1777166619 | 27.22° C | 68% | 1003.8 hPa | 0 mm | - | 0 W/m² | - |
| 1777166315 | 27.78° C | 67% | 1004 hPa | 0 mm | - | 0 W/m² | - |
| 1777166011 | 27.78° C | 66% | 1003.8 hPa | 0 mm | - | 0 W/m² | - |
| 1777165710 | 27.78° C | 65% | 1003.7 hPa | 0 mm | - | 1 W/m² | - |
| 1777165405 | 28.33° C | 65% | 1003.9 hPa | 0 mm | - | 2 W/m² | - |
| 1777165101 | 28.33° C | 64% | 1003.7 hPa | 0 mm | - | 3 W/m² | - |
| 1777164797 | 28.33° C | 63% | 1003.7 hPa | 0 mm | - | 4 W/m² | - |
| 1777164495 | 28.89° C | 62% | 1003.7 hPa | 0 mm | - | 6 W/m² | - |
| 1777164190 | 28.89° C | 62% | 1003.6 hPa | 0 mm | - | 8 W/m² | - |
| 1777163885 | 28.89° C | 62% | 1003.9 hPa | 0 mm | - | 11 W/m² | - |
| 1777163584 | 28.89° C | 62% | 1003.9 hPa | 0 mm | - | 13 W/m² | - |
| 1777163280 | 28.89° C | 62% | 1003.7 hPa | 0 mm | - | 15 W/m² | - |
| 1777162977 | 29.44° C | 62% | 1003.8 hPa | 0 mm | - | 19 W/m² | - |
| 1777162677 | 29.44° C | 61% | 1004 hPa | 0 mm | - | 21 W/m² | - |
| 1777162372 | 29.44° C | 61% | 1004.1 hPa | 0 mm | - | 26 W/m² | - |
| 1777162071 | 29.44° C | 60% | 1004 hPa | 0 mm | - | 28 W/m² | - |
| 1777161767 | 29.44° C | 61% | 1004 hPa | 0 mm | - | 33 W/m² | - |
| 1777161465 | 29.44° C | 60% | 1004 hPa | 0 mm | - | 35 W/m² | - |
| 1777161160 | 30° C | 60% | 1004 hPa | 0 mm | - | 36 W/m² | - |
| 1777160857 | 30° C | 60% | 1003.8 hPa | 0 mm | - | 34 W/m² | - |
| 1777160552 | 30° C | 60% | 1004.1 hPa | 0 mm | - | 41 W/m² | - |
| 1777160249 | 30° C | 59% | 1004.2 hPa | 0 mm | - | 42 W/m² | - |
| 1777159945 | 30° C | 59% | 1004.3 hPa | 0 mm | - | 45 W/m² | - |
| 1777159640 | 30° C | 58% | 1004 hPa | 0 mm | - | 46 W/m² | - |
| 1777159337 | 30° C | 58% | 1004.2 hPa | 0 mm | - | 55 W/m² | - |
* Rain latest hour (hover to see other rain measurements)
** Current wind speed in m/s (hover to see current wind gust speed)